createdAt,value
2018-08-09T00:00:27.599Z,63.82
2018-08-09T00:01:28.080Z,63.85
2018-08-09T00:02:27.452Z,63.88
2018-08-09T00:03:27.664Z,63.88
2018-08-09T00:04:27.438Z,63.88
2018-08-09T00:05:27.773Z,63.85
2018-08-09T00:06:27.638Z,63.84
2018-08-09T00:07:27.599Z,63.87
2018-08-09T00:08:27.520Z,63.89
2018-08-09T00:09:27.650Z,63.87
2018-08-09T00:10:27.662Z,63.9
2018-08-09T00:11:27.571Z,63.87
2018-08-09T00:12:27.553Z,63.88
2018-08-09T00:13:27.445Z,63.89
2018-08-09T00:14:27.758Z,63.88
2018-08-09T00:15:27.857Z,63.88
2018-08-09T00:16:27.568Z,63.86
2018-08-09T00:17:27.612Z,63.88
2018-08-09T00:18:27.609Z,63.86
2018-08-09T00:19:27.601Z,63.88
2018-08-09T00:20:27.551Z,63.84
2018-08-09T00:21:27.568Z,63.86
2018-08-09T00:22:27.417Z,63.86
2018-08-09T00:23:27.654Z,63.86
2018-08-09T00:24:27.927Z,63.84
2018-08-09T00:25:27.507Z,63.87
2018-08-09T00:26:27.657Z,63.87
2018-08-09T00:27:27.657Z,63.87
2018-08-09T00:28:27.566Z,63.9
2018-08-09T00:29:27.620Z,63.89
2018-08-09T00:30:27.692Z,63.86
2018-08-09T00:31:27.457Z,63.86
2018-08-09T00:32:27.671Z,63.85
2018-08-09T00:33:27.842Z,63.86
2018-08-09T00:34:27.670Z,63.87
2018-08-09T00:35:27.677Z,63.84
2018-08-09T00:36:27.498Z,63.88
2018-08-09T00:37:27.743Z,63.86
2018-08-09T00:38:27.679Z,63.84
2018-08-09T00:39:27.739Z,63.84
2018-08-09T00:40:27.513Z,63.86
2018-08-09T00:41:27.591Z,63.86
2018-08-09T00:42:27.614Z,63.83
2018-08-09T00:43:27.521Z,63.86
2018-08-09T00:44:27.817Z,63.85
2018-08-09T00:45:27.532Z,63.86
2018-08-09T00:46:27.506Z,63.86
2018-08-09T00:47:27.746Z,63.87
2018-08-09T00:48:27.582Z,63.83
2018-08-09T00:49:27.608Z,63.85
2018-08-09T00:50:27.483Z,63.86
2018-08-09T00:51:27.548Z,63.87
2018-08-09T00:52:27.507Z,63.83
2018-08-09T00:53:27.625Z,63.85
2018-08-09T00:54:27.507Z,63.86
2018-08-09T00:55:27.637Z,63.85
2018-08-09T00:56:27.451Z,63.87
2018-08-09T00:57:27.669Z,63.83
2018-08-09T00:58:27.487Z,63.85
2018-08-09T00:59:27.538Z,63.84
2018-08-09T01:00:27.569Z,63.87
2018-08-09T01:01:27.654Z,63.86
2018-08-09T01:02:27.696Z,63.85
2018-08-09T01:03:27.600Z,63.88
2018-08-09T01:04:27.633Z,63.86
2018-08-09T01:05:27.514Z,63.88
2018-08-09T01:06:27.650Z,63.86
2018-08-09T01:07:27.393Z,63.87
2018-08-09T01:08:27.598Z,63.9
2018-08-09T01:09:27.453Z,63.89
2018-08-09T01:10:27.598Z,63.88
2018-08-09T01:11:27.537Z,63.83
2018-08-09T01:12:27.581Z,63.87
2018-08-09T01:13:27.484Z,63.89
2018-08-09T01:14:27.667Z,63.83
2018-08-09T01:15:27.735Z,63.86
2018-08-09T01:16:27.418Z,63.87
2018-08-09T01:17:27.505Z,63.86
2018-08-09T01:18:27.502Z,63.87
2018-08-09T01:19:27.937Z,63.87
2018-08-09T01:20:27.574Z,63.87
2018-08-09T01:21:27.704Z,63.87
2018-08-09T01:22:27.633Z,63.86
2018-08-09T01:23:27.534Z,63.85
2018-08-09T01:24:27.468Z,63.86
2018-08-09T01:25:27.503Z,63.87
2018-08-09T01:26:27.433Z,63.86
2018-08-09T01:27:27.354Z,63.83
2018-08-09T01:28:27.444Z,63.86
2018-08-09T01:29:27.502Z,63.86
2018-08-09T01:30:27.757Z,63.85
2018-08-09T01:31:27.672Z,63.85
2018-08-09T01:32:27.535Z,63.85
2018-08-09T01:33:27.668Z,63.85
2018-08-09T01:34:27.876Z,63.86
2018-08-09T01:35:27.559Z,63.89
2018-08-09T01:36:27.362Z,63.87
2018-08-09T01:37:27.612Z,63.86
2018-08-09T01:38:27.564Z,63.87
2018-08-09T01:39:27.798Z,63.84
2018-08-09T01:40:27.527Z,63.88
2018-08-09T01:41:27.560Z,63.89
2018-08-09T01:42:27.574Z,63.89
2018-08-09T01:43:27.725Z,63.88
2018-08-09T01:44:27.824Z,63.84
2018-08-09T01:45:27.529Z,63.86
2018-08-09T01:46:27.498Z,63.87
2018-08-09T01:47:27.483Z,63.88
2018-08-09T01:48:27.623Z,63.87
2018-08-09T01:49:27.746Z,63.91
2018-08-09T01:50:27.532Z,63.86
2018-08-09T01:51:27.556Z,63.84
2018-08-09T01:52:27.667Z,63.89
2018-08-09T01:53:27.523Z,63.84
2018-08-09T01:54:27.659Z,63.86
2018-08-09T01:55:27.514Z,63.86
2018-08-09T01:56:27.500Z,63.83
2018-08-09T01:57:27.500Z,63.87
2018-08-09T01:58:27.724Z,63.84
2018-08-09T01:59:27.520Z,63.84
2018-08-09T02:00:27.414Z,63.85
2018-08-09T02:01:27.508Z,63.83
2018-08-09T02:02:27.439Z,63.86
2018-08-09T02:03:27.541Z,63.84
2018-08-09T02:04:27.916Z,63.89
2018-08-09T02:05:27.431Z,63.85
2018-08-09T02:06:27.870Z,63.84
2018-08-09T02:07:27.420Z,63.82
2018-08-09T02:08:27.578Z,63.83
2018-08-09T02:09:27.638Z,63.86
2018-08-09T02:10:27.421Z,63.87
2018-08-09T02:11:27.494Z,63.86
2018-08-09T02:12:27.588Z,63.85
2018-08-09T02:13:27.553Z,63.89
2018-08-09T02:14:27.466Z,63.84
2018-08-09T02:15:27.581Z,63.89
2018-08-09T02:16:27.428Z,63.89
2018-08-09T02:17:27.663Z,63.91
2018-08-09T02:18:27.450Z,63.85
2018-08-09T02:19:27.775Z,63.85
2018-08-09T02:20:27.513Z,63.83
2018-08-09T02:21:27.427Z,63.84
2018-08-09T02:22:27.624Z,63.85
2018-08-09T02:23:27.557Z,63.85
2018-08-09T02:24:27.659Z,63.87
2018-08-09T02:25:27.431Z,63.84
2018-08-09T02:26:27.812Z,63.88
2018-08-09T02:27:27.544Z,63.82
2018-08-09T02:28:27.595Z,63.83
2018-08-09T02:29:27.502Z,63.84
2018-08-09T02:30:27.707Z,63.9
2018-08-09T02:31:27.556Z,63.85
2018-08-09T02:32:27.517Z,63.82
2018-08-09T02:33:27.577Z,63.85
2018-08-09T02:34:27.522Z,63.86
2018-08-09T02:35:27.463Z,63.87
2018-08-09T02:36:27.648Z,63.88
2018-08-09T02:37:27.502Z,63.86
2018-08-09T02:38:27.619Z,63.87
2018-08-09T02:39:27.493Z,63.86
2018-08-09T02:40:27.665Z,63.83
2018-08-09T02:41:27.623Z,63.87
2018-08-09T02:42:27.473Z,63.88
2018-08-09T02:43:27.517Z,63.86
2018-08-09T02:44:27.483Z,63.86
2018-08-09T02:45:27.535Z,63.85
2018-08-09T02:46:27.657Z,63.85
2018-08-09T02:47:27.550Z,63.86
2018-08-09T02:48:27.706Z,63.87
2018-08-09T02:49:27.612Z,63.88
2018-08-09T02:50:27.630Z,63.9
2018-08-09T02:51:27.793Z,63.86
2018-08-09T02:52:27.346Z,63.85
2018-08-09T02:53:27.529Z,63.88
2018-08-09T02:54:27.571Z,63.85
2018-08-09T02:55:27.527Z,63.86
2018-08-09T02:56:27.514Z,63.88
2018-08-09T02:57:27.567Z,63.87
2018-08-09T02:58:27.655Z,63.87
2018-08-09T02:59:27.657Z,63.86
2018-08-09T03:00:27.782Z,63.86
2018-08-09T03:01:27.769Z,63.85
2018-08-09T03:02:27.884Z,63.85
2018-08-09T03:03:27.509Z,63.86
2018-08-09T03:04:27.446Z,63.88
2018-08-09T03:05:27.471Z,63.84
2018-08-09T03:06:27.565Z,63.86
2018-08-09T03:07:27.485Z,63.89
2018-08-09T03:08:27.478Z,63.86
2018-08-09T03:09:27.648Z,63.85
2018-08-09T03:10:27.430Z,63.86
2018-08-09T03:11:27.633Z,63.84
2018-08-09T03:12:27.684Z,63.87
2018-08-09T03:13:27.699Z,63.89
2018-08-09T03:14:27.839Z,63.88
2018-08-09T03:15:27.824Z,63.87
2018-08-09T03:16:27.693Z,63.87
2018-08-09T03:17:27.577Z,63.88
2018-08-09T03:18:27.561Z,63.92
2018-08-09T03:19:27.512Z,63.88
2018-08-09T03:20:27.439Z,63.89
2018-08-09T03:21:27.690Z,63.89
2018-08-09T03:22:27.599Z,63.85
2018-08-09T03:23:27.520Z,63.89
2018-08-09T03:24:28.553Z,63.87
2018-08-09T03:25:28.004Z,63.87
2018-08-09T03:26:27.881Z,63.92
2018-08-09T03:27:27.533Z,63.9
2018-08-09T03:28:27.327Z,63.87
2018-08-09T03:29:27.561Z,63.88
2018-08-09T03:30:27.904Z,63.88
2018-08-09T03:31:27.405Z,63.89
2018-08-09T03:32:27.991Z,63.87
2018-08-09T03:33:27.616Z,63.88
2018-08-09T03:34:27.528Z,63.92
2018-08-09T03:35:27.869Z,63.88
2018-08-09T03:36:27.433Z,63.86
2018-08-09T03:37:27.498Z,63.88
2018-08-09T03:38:27.425Z,63.88
2018-08-09T03:39:27.479Z,63.85
2018-08-09T03:40:27.444Z,63.88
2018-08-09T03:41:27.596Z,63.88
2018-08-09T03:42:27.616Z,63.84
2018-08-09T03:43:27.645Z,63.85
2018-08-09T03:44:27.522Z,63.88
2018-08-09T03:45:27.409Z,63.9
2018-08-09T03:46:27.392Z,63.9
2018-08-09T03:47:27.443Z,63.88
2018-08-09T03:48:27.767Z,63.89
2018-08-09T03:49:27.587Z,63.88
2018-08-09T03:50:27.521Z,63.83
2018-08-09T03:51:27.615Z,63.87
2018-08-09T03:52:27.587Z,63.88
2018-08-09T03:53:27.576Z,63.87
2018-08-09T03:54:27.575Z,63.85
2018-08-09T03:55:27.389Z,63.88
2018-08-09T03:56:27.612Z,63.85
2018-08-09T03:57:27.627Z,63.85
2018-08-09T03:58:27.485Z,63.87
2018-08-09T03:59:27.461Z,63.9
2018-08-09T04:00:27.606Z,63.88
2018-08-09T04:01:27.423Z,63.85
2018-08-09T04:02:27.595Z,63.88
2018-08-09T04:03:27.644Z,63.87
2018-08-09T04:04:27.272Z,63.87
2018-08-09T04:05:27.522Z,63.87
2018-08-09T04:06:27.463Z,63.86
2018-08-09T04:07:27.380Z,63.87
2018-08-09T04:08:27.400Z,63.87
2018-08-09T04:09:27.454Z,63.83
2018-08-09T04:10:27.464Z,63.83
2018-08-09T04:11:27.571Z,63.87
2018-08-09T04:12:27.417Z,63.87
2018-08-09T04:13:27.441Z,63.87
2018-08-09T04:14:27.567Z,63.88
2018-08-09T04:15:27.378Z,63.85
2018-08-09T04:16:27.459Z,63.9
2018-08-09T04:17:27.769Z,63.85
2018-08-09T04:18:27.490Z,63.88
2018-08-09T04:19:27.458Z,63.89
2018-08-09T04:20:27.504Z,63.87
2018-08-09T04:21:27.357Z,63.9
2018-08-09T04:22:27.462Z,63.85
2018-08-09T04:23:27.519Z,63.87
2018-08-09T04:24:27.500Z,63.88
2018-08-09T04:25:27.448Z,63.86
2018-08-09T04:26:28.206Z,63.83
2018-08-09T04:27:27.382Z,63.87
2018-08-09T04:28:27.600Z,63.88
2018-08-09T04:29:27.432Z,63.88
2018-08-09T04:30:27.597Z,63.86
2018-08-09T04:31:27.317Z,63.87
2018-08-09T04:32:27.530Z,63.82
2018-08-09T04:33:27.626Z,63.85
2018-08-09T04:34:27.533Z,63.88
2018-08-09T04:35:27.624Z,63.88
2018-08-09T04:36:27.576Z,63.84
2018-08-09T04:37:27.758Z,63.84
2018-08-09T04:38:27.499Z,63.88
2018-08-09T04:39:27.413Z,63.83
2018-08-09T04:40:27.423Z,63.84
2018-08-09T04:41:27.523Z,63.85
2018-08-09T04:42:27.461Z,63.88
2018-08-09T04:43:27.508Z,63.86
2018-08-09T04:44:27.724Z,63.85
2018-08-09T04:45:27.600Z,63.86
2018-08-09T04:46:27.546Z,63.84
2018-08-09T04:47:27.435Z,63.87
2018-08-09T04:48:27.648Z,63.82
2018-08-09T04:49:27.529Z,63.85
2018-08-09T04:50:27.587Z,63.87
2018-08-09T04:51:27.550Z,63.88
2018-08-09T04:52:27.486Z,63.85
2018-08-09T04:53:27.432Z,63.87
2018-08-09T04:54:27.624Z,63.85
2018-08-09T04:55:27.840Z,63.85
2018-08-09T04:56:27.455Z,63.88
2018-08-09T04:57:27.788Z,63.87
2018-08-09T04:58:28.343Z,63.87
2018-08-09T04:59:27.506Z,63.85
2018-08-09T05:00:27.422Z,63.86
2018-08-09T05:01:27.587Z,63.87
2018-08-09T05:02:27.616Z,63.87
2018-08-09T05:03:27.538Z,63.85
2018-08-09T05:04:27.621Z,63.88
2018-08-09T05:05:27.604Z,63.88
2018-08-09T05:06:27.924Z,63.87
2018-08-09T05:07:27.392Z,63.88
2018-08-09T05:08:27.591Z,63.87
2018-08-09T05:09:27.603Z,63.87
2018-08-09T05:10:27.557Z,63.88
2018-08-09T05:11:27.419Z,63.88
2018-08-09T05:12:27.503Z,63.85
2018-08-09T05:13:27.639Z,63.85
2018-08-09T05:14:27.525Z,63.82
2018-08-09T05:15:27.435Z,63.83
2018-08-09T05:16:27.381Z,63.84
2018-08-09T05:17:27.494Z,63.84
2018-08-09T05:18:27.455Z,63.88
2018-08-09T05:19:27.607Z,63.84
2018-08-09T05:20:27.452Z,63.86
2018-08-09T05:21:27.618Z,63.84
2018-08-09T05:22:27.437Z,63.84
2018-08-09T05:23:27.609Z,63.86
2018-08-09T05:24:27.487Z,63.88
2018-08-09T05:25:27.393Z,63.86
2018-08-09T05:26:27.794Z,63.86
2018-08-09T05:27:27.448Z,63.85
2018-08-09T05:28:27.641Z,63.83
2018-08-09T05:29:27.637Z,63.87
2018-08-09T05:30:27.527Z,63.84
2018-08-09T05:31:27.393Z,63.87
2018-08-09T05:32:27.618Z,63.85
2018-08-09T05:33:27.561Z,63.85
2018-08-09T05:34:27.516Z,63.88
2018-08-09T05:35:27.762Z,63.9
2018-08-09T05:36:27.470Z,63.87
2018-08-09T05:37:27.505Z,63.85
2018-08-09T05:38:27.606Z,63.88
2018-08-09T05:39:27.588Z,63.85
2018-08-09T05:40:27.447Z,63.84
2018-08-09T05:41:27.999Z,63.83
2018-08-09T05:42:27.531Z,63.86
2018-08-09T05:43:27.569Z,63.85
2018-08-09T05:44:27.426Z,63.86
2018-08-09T05:45:27.529Z,63.85
2018-08-09T05:46:27.538Z,63.85
2018-08-09T05:47:27.441Z,63.88
2018-08-09T05:48:27.561Z,63.84
2018-08-09T05:49:27.559Z,63.87
2018-08-09T05:50:27.480Z,63.83
2018-08-09T05:51:27.460Z,63.85
2018-08-09T05:52:27.468Z,63.82
2018-08-09T05:53:27.627Z,63.84
2018-08-09T05:54:27.355Z,63.82
2018-08-09T05:55:28.314Z,63.85
2018-08-09T05:56:27.602Z,63.84
2018-08-09T05:57:28.338Z,63.88
2018-08-09T05:58:28.116Z,63.84
2018-08-09T05:59:27.548Z,63.85
2018-08-09T06:00:27.768Z,63.87
2018-08-09T06:01:27.435Z,63.85
2018-08-09T06:02:27.549Z,63.85
2018-08-09T06:03:27.420Z,63.85
2018-08-09T06:04:27.791Z,63.85
2018-08-09T06:05:27.359Z,63.83
2018-08-09T06:06:27.649Z,63.85
2018-08-09T06:07:27.649Z,63.84
2018-08-09T06:08:27.584Z,63.85
2018-08-09T06:09:27.516Z,63.84
2018-08-09T06:10:27.573Z,63.83
2018-08-09T06:11:27.485Z,63.87
2018-08-09T06:12:27.396Z,63.84
2018-08-09T06:13:28.204Z,63.86
2018-08-09T06:14:27.507Z,63.85
2018-08-09T06:15:27.544Z,63.83
2018-08-09T06:16:27.438Z,63.86
2018-08-09T06:17:27.492Z,63.83
2018-08-09T06:18:27.578Z,63.84
2018-08-09T06:19:27.504Z,63.86
2018-08-09T06:20:27.610Z,63.81
2018-08-09T06:21:27.446Z,63.84
2018-08-09T06:22:27.484Z,63.84
2018-08-09T06:23:27.588Z,63.81
2018-08-09T06:24:27.431Z,63.84
2018-08-09T06:25:27.599Z,63.84
2018-08-09T06:26:28.621Z,63.84
2018-08-09T06:27:27.589Z,63.82
2018-08-09T06:28:27.487Z,63.8
2018-08-09T06:29:27.444Z,63.82
2018-08-09T06:30:27.975Z,63.83
2018-08-09T06:31:27.373Z,63.81
2018-08-09T06:32:27.547Z,63.84
2018-08-09T06:33:28.253Z,63.81
2018-08-09T06:34:27.473Z,63.83
2018-08-09T06:35:27.471Z,63.83
2018-08-09T06:36:27.628Z,63.82
2018-08-09T06:37:27.507Z,63.79
2018-08-09T06:38:27.541Z,63.81
2018-08-09T06:39:27.402Z,63.79
2018-08-09T06:40:27.481Z,63.83
2018-08-09T06:41:27.583Z,63.82
2018-08-09T06:42:27.479Z,63.8
2018-08-09T06:43:27.516Z,63.78
2018-08-09T06:44:27.496Z,63.8
2018-08-09T06:45:27.677Z,63.81
2018-08-09T06:46:27.404Z,63.81
2018-08-09T06:47:27.878Z,63.79
2018-08-09T06:48:27.583Z,63.82
2018-08-09T06:49:27.527Z,63.82
2018-08-09T06:50:27.517Z,63.8
2018-08-09T06:51:27.839Z,63.79
2018-08-09T06:52:27.478Z,63.81
2018-08-09T06:53:27.587Z,63.82
2018-08-09T06:54:27.622Z,63.79
2018-08-09T06:55:27.963Z,63.77
2018-08-09T06:56:27.359Z,63.78
2018-08-09T06:57:28.114Z,63.8
2018-08-09T06:58:27.855Z,63.8
2018-08-09T06:59:27.505Z,63.82
2018-08-09T07:00:27.734Z,63.82
2018-08-09T07:01:27.494Z,63.81
2018-08-09T07:02:27.585Z,63.81
2018-08-09T07:03:27.577Z,63.8
2018-08-09T07:04:27.556Z,63.81
2018-08-09T07:05:27.436Z,63.78
2018-08-09T07:06:27.329Z,63.81
2018-08-09T07:07:27.553Z,63.81
2018-08-09T07:08:27.823Z,63.76
2018-08-09T07:09:27.564Z,63.83
2018-08-09T07:10:27.422Z,63.81
2018-08-09T07:11:27.457Z,63.79
2018-08-09T07:12:27.586Z,63.79
2018-08-09T07:13:27.813Z,63.82
2018-08-09T07:14:27.405Z,63.8
2018-08-09T07:15:27.355Z,63.82
2018-08-09T07:16:27.747Z,63.8
2018-08-09T07:17:27.463Z,63.82
2018-08-09T07:18:27.437Z,63.79
2018-08-09T07:19:27.605Z,63.79
2018-08-09T07:20:28.635Z,63.78
2018-08-09T07:21:27.419Z,63.78
2018-08-09T07:22:27.704Z,63.81
2018-08-09T07:23:27.511Z,63.8
2018-08-09T07:24:27.465Z,63.82
2018-08-09T07:25:27.510Z,63.78
2018-08-09T07:26:28.257Z,63.8
2018-08-09T07:27:27.651Z,63.81
2018-08-09T07:28:27.548Z,63.8
2018-08-09T07:29:27.821Z,63.83
2018-08-09T07:30:27.652Z,63.83
2018-08-09T07:31:27.797Z,63.78
2018-08-09T07:32:27.627Z,63.81
2018-08-09T07:33:27.599Z,63.81
2018-08-09T07:34:27.566Z,63.86
2018-08-09T07:35:27.514Z,63.79
2018-08-09T07:36:28.013Z,63.82
2018-08-09T07:37:27.612Z,63.83
2018-08-09T07:38:27.417Z,63.8
2018-08-09T07:39:28.397Z,63.8
2018-08-09T07:40:27.478Z,63.81
2018-08-09T07:41:27.587Z,63.79
2018-08-09T07:42:27.387Z,63.77
2018-08-09T07:43:27.582Z,63.81
2018-08-09T07:44:27.352Z,63.77
2018-08-09T07:45:27.331Z,63.82
2018-08-09T07:46:27.545Z,63.81
2018-08-09T07:47:27.347Z,63.8
2018-08-09T07:48:28.115Z,63.78
2018-08-09T07:49:27.732Z,63.8
2018-08-09T07:50:27.517Z,63.81
2018-08-09T07:51:27.532Z,63.78
2018-08-09T07:52:27.500Z,63.78
2018-08-09T07:53:27.447Z,63.78
2018-08-09T07:54:28.745Z,63.75
2018-08-09T07:55:27.340Z,63.82
2018-08-09T07:56:27.420Z,63.76
2018-08-09T07:57:27.412Z,63.79
2018-08-09T07:58:27.577Z,63.77
2018-08-09T07:59:27.552Z,63.78
2018-08-09T08:00:27.375Z,63.76
2018-08-09T08:01:27.579Z,63.8
2018-08-09T08:02:27.465Z,63.78
2018-08-09T08:03:27.492Z,63.8
2018-08-09T08:04:27.674Z,63.78
2018-08-09T08:05:27.601Z,63.79
2018-08-09T08:06:27.421Z,63.78
2018-08-09T08:07:27.454Z,63.8
2018-08-09T08:08:28.147Z,63.78
2018-08-09T08:09:27.595Z,63.77
2018-08-09T08:10:27.456Z,63.77
2018-08-09T08:11:27.648Z,63.78
2018-08-09T08:12:27.496Z,63.77
2018-08-09T08:13:27.708Z,63.77
2018-08-09T08:14:27.484Z,63.81
2018-08-09T08:15:27.344Z,63.78
2018-08-09T08:16:27.889Z,63.76
2018-08-09T08:17:27.633Z,63.9
2018-08-09T08:18:27.556Z,64.01
2018-08-09T08:19:27.926Z,63.9
2018-08-09T08:20:27.536Z,63.91
2018-08-09T08:21:27.562Z,64.05
2018-08-09T08:22:27.455Z,64
2018-08-09T08:23:27.495Z,64.17
2018-08-09T08:24:27.599Z,64.22
2018-08-09T08:25:27.533Z,64.08
2018-08-09T08:26:27.694Z,64.06
2018-08-09T08:27:27.465Z,64.09
2018-08-09T08:28:27.710Z,64.07
2018-08-09T08:29:27.521Z,64.04
2018-08-09T08:30:27.469Z,64.03
2018-08-09T08:31:27.537Z,64.08
2018-08-09T08:32:27.577Z,64.05
2018-08-09T08:33:27.339Z,64.12
2018-08-09T08:34:27.823Z,64.05
2018-08-09T08:35:27.783Z,64.07
2018-08-09T08:36:27.719Z,64.1
2018-08-09T08:37:27.552Z,64.1
2018-08-09T08:38:27.368Z,64.07
2018-08-09T08:39:27.564Z,64.09
2018-08-09T08:40:27.398Z,63.99
2018-08-09T08:41:28.402Z,63.95
2018-08-09T08:42:27.346Z,64.09
2018-08-09T08:43:27.617Z,64.16
2018-08-09T08:44:27.548Z,64.04
2018-08-09T08:45:27.607Z,64.25
2018-08-09T08:46:27.436Z,64.13
2018-08-09T08:47:28.293Z,64.27
2018-08-09T08:48:27.780Z,64.22
2018-08-09T08:49:27.444Z,64.21
2018-08-09T08:50:27.423Z,64.19
2018-08-09T08:51:27.452Z,64.2
2018-08-09T08:52:27.620Z,64.18
2018-08-09T08:53:27.601Z,64.16
2018-08-09T08:54:27.557Z,64.16
2018-08-09T08:55:27.477Z,64.18
2018-08-09T08:56:27.491Z,64.17
2018-08-09T08:57:27.470Z,64.19
2018-08-09T08:58:27.466Z,64.21
2018-08-09T08:59:27.395Z,64.17
2018-08-09T09:00:27.315Z,64.19
2018-08-09T09:01:27.464Z,64.13
2018-08-09T09:02:27.477Z,64.15
2018-08-09T09:03:27.466Z,64.16
2018-08-09T09:04:28.687Z,64.17
2018-08-09T09:05:27.466Z,64.14
2018-08-09T09:06:27.554Z,64.09
2018-08-09T09:07:27.609Z,64.13
2018-08-09T09:08:27.355Z,64.1
2018-08-09T09:09:27.375Z,64.1
2018-08-09T09:10:27.515Z,64.15
2018-08-09T09:11:27.289Z,64.11
2018-08-09T09:12:27.449Z,64.07
2018-08-09T09:13:27.408Z,64.13
2018-08-09T09:14:27.588Z,64.06
2018-08-09T09:15:27.377Z,64.05
2018-08-09T09:16:27.402Z,64.05
2018-08-09T09:17:27.440Z,64.01
2018-08-09T09:18:27.637Z,64.06
2018-08-09T09:19:27.378Z,64.07
2018-08-09T09:20:27.393Z,64.03
2018-08-09T09:21:27.528Z,64.03
2018-08-09T09:22:27.355Z,64.03
2018-08-09T09:23:27.362Z,64.08
2018-08-09T09:24:27.406Z,64.04
2018-08-09T09:25:27.548Z,64.04
2018-08-09T09:26:27.393Z,64.07
2018-08-09T09:27:27.496Z,64
2018-08-09T09:28:27.427Z,64
2018-08-09T09:29:27.459Z,63.97
2018-08-09T09:30:27.592Z,63.99
2018-08-09T09:31:27.361Z,63.98
2018-08-09T09:32:27.344Z,63.97
2018-08-09T09:33:27.444Z,63.95
2018-08-09T09:34:27.368Z,63.95
2018-08-09T09:35:27.487Z,63.97
2018-08-09T09:36:27.429Z,63.92
2018-08-09T09:37:27.518Z,63.97
2018-08-09T09:38:27.492Z,63.94
2018-08-09T09:39:27.501Z,63.94
2018-08-09T09:40:27.503Z,63.9
2018-08-09T09:41:28.239Z,63.93
2018-08-09T09:42:27.349Z,63.88
2018-08-09T09:43:27.508Z,63.91
2018-08-09T09:44:27.379Z,63.9
2018-08-09T09:45:27.513Z,63.9
2018-08-09T09:46:27.533Z,63.92
2018-08-09T09:47:27.505Z,63.89
2018-08-09T09:48:27.417Z,63.89
2018-08-09T09:49:27.698Z,63.9
2018-08-09T09:50:27.452Z,63.89
2018-08-09T09:51:27.332Z,63.89
2018-08-09T09:52:27.406Z,63.88
2018-08-09T09:53:27.445Z,63.89
2018-08-09T09:54:27.431Z,63.89
2018-08-09T09:55:27.516Z,63.87
2018-08-09T09:56:27.448Z,63.9
2018-08-09T09:57:27.312Z,63.87
2018-08-09T09:58:27.319Z,63.9
2018-08-09T09:59:27.521Z,63.88
2018-08-09T10:00:27.286Z,63.9
2018-08-09T10:01:27.370Z,63.87
2018-08-09T10:02:27.563Z,63.88
2018-08-09T10:03:27.509Z,63.82
2018-08-09T10:04:27.467Z,63.88
2018-08-09T10:05:27.358Z,63.86
2018-08-09T10:06:27.293Z,63.85
2018-08-09T10:07:27.883Z,63.82
2018-08-09T10:08:27.539Z,63.83
2018-08-09T10:09:27.283Z,63.85
2018-08-09T10:10:28.085Z,63.82
2018-08-09T10:11:27.582Z,63.86
2018-08-09T10:12:27.530Z,63.83
2018-08-09T10:13:27.329Z,63.87
2018-08-09T10:14:27.848Z,63.86
2018-08-09T10:15:27.350Z,63.83
2018-08-09T10:16:27.425Z,63.83
2018-08-09T10:17:27.405Z,63.82
2018-08-09T10:18:27.346Z,63.82
2018-08-09T10:19:27.387Z,63.83
2018-08-09T10:20:27.342Z,63.82
2018-08-09T10:21:27.441Z,63.8
2018-08-09T10:22:27.450Z,63.8
2018-08-09T10:23:27.303Z,63.83
2018-08-09T10:24:27.421Z,63.8
2018-08-09T10:25:27.368Z,63.82
2018-08-09T10:26:27.492Z,63.83
2018-08-09T10:27:27.389Z,63.81
2018-08-09T10:28:27.458Z,63.83
2018-08-09T10:29:27.545Z,63.83
2018-08-09T10:30:27.544Z,63.86
2018-08-09T10:31:27.406Z,63.83
2018-08-09T10:32:27.286Z,63.8
2018-08-09T10:33:27.537Z,63.82
2018-08-09T10:34:27.566Z,63.79
2018-08-09T10:35:27.775Z,63.8
2018-08-09T10:36:27.266Z,63.78
2018-08-09T10:37:27.418Z,63.8
2018-08-09T10:38:27.475Z,63.83
2018-08-09T10:39:27.518Z,63.82
2018-08-09T10:40:27.467Z,63.78
2018-08-09T10:41:27.470Z,63.81
2018-08-09T10:42:27.561Z,63.81
2018-08-09T10:43:27.641Z,63.81
2018-08-09T10:44:27.390Z,63.8
2018-08-09T10:45:27.355Z,63.82
2018-08-09T10:46:27.364Z,63.8
2018-08-09T10:47:27.385Z,63.83
2018-08-09T10:48:27.451Z,63.82
2018-08-09T10:49:27.435Z,63.8
2018-08-09T10:50:27.398Z,63.79
2018-08-09T10:51:27.674Z,63.77
2018-08-09T10:52:27.373Z,63.81
2018-08-09T10:53:27.476Z,63.79
2018-08-09T10:54:27.708Z,63.8
2018-08-09T10:55:27.544Z,63.81
2018-08-09T10:56:27.588Z,63.78
2018-08-09T10:57:27.618Z,63.8
2018-08-09T10:58:27.357Z,63.79
2018-08-09T10:59:27.962Z,63.76
2018-08-09T11:00:27.453Z,63.77
2018-08-09T11:01:27.450Z,63.76
2018-08-09T11:02:27.588Z,63.8
2018-08-09T11:03:27.275Z,63.77
2018-08-09T11:04:27.449Z,63.8
2018-08-09T11:05:27.559Z,63.8
2018-08-09T11:06:27.289Z,63.79
2018-08-09T11:07:27.542Z,63.79
2018-08-09T11:08:27.440Z,63.79
2018-08-09T11:09:27.484Z,63.79
2018-08-09T11:10:27.355Z,63.79
2018-08-09T11:11:27.482Z,63.75
2018-08-09T11:12:27.440Z,63.79
2018-08-09T11:13:27.614Z,63.8
2018-08-09T11:14:27.395Z,63.79
2018-08-09T11:15:27.404Z,63.76
2018-08-09T11:16:27.395Z,63.81
2018-08-09T11:17:27.539Z,63.78
2018-08-09T11:18:27.390Z,63.8
2018-08-09T11:19:27.590Z,63.79
2018-08-09T11:20:27.307Z,63.78
2018-08-09T11:21:27.414Z,63.76
2018-08-09T11:22:27.485Z,63.79
2018-08-09T11:23:27.471Z,63.74
2018-08-09T11:24:27.491Z,63.75
2018-08-09T11:25:27.365Z,63.81
2018-08-09T11:26:27.433Z,63.77
2018-08-09T11:27:27.614Z,63.75
2018-08-09T11:28:27.495Z,63.8
2018-08-09T11:29:27.434Z,63.78
2018-08-09T11:30:27.298Z,63.76
2018-08-09T11:31:27.461Z,63.79
2018-08-09T11:32:27.286Z,63.75
2018-08-09T11:33:27.483Z,63.92
2018-08-09T11:34:27.462Z,63.81
2018-08-09T11:35:27.564Z,63.83
2018-08-09T11:36:27.354Z,64.31
2018-08-09T11:37:27.326Z,64.29
2018-08-09T11:38:27.513Z,64.06
2018-08-09T11:39:27.312Z,64.16
2018-08-09T11:40:27.562Z,64.19
2018-08-09T11:41:27.342Z,64.13
2018-08-09T11:42:27.309Z,64.25
2018-08-09T11:43:27.438Z,64.17
2018-08-09T11:44:27.331Z,64.17
2018-08-09T11:45:27.390Z,64.1
2018-08-09T11:46:27.508Z,64.02
2018-08-09T11:47:27.624Z,64.07
2018-08-09T11:48:27.350Z,64.05
2018-08-09T11:49:27.719Z,64.01
2018-08-09T11:50:27.446Z,64.02
2018-08-09T11:51:27.439Z,64.09
2018-08-09T11:52:27.379Z,64.08
2018-08-09T11:53:27.506Z,64.04
2018-08-09T11:54:27.383Z,64.2
2018-08-09T11:55:27.397Z,64.14
2018-08-09T11:56:28.239Z,64.37
2018-08-09T11:57:27.358Z,64.47
2018-08-09T11:58:27.480Z,64.39
2018-08-09T11:59:27.463Z,64.43
2018-08-09T12:00:27.534Z,64.3
2018-08-09T12:01:27.976Z,64.29
2018-08-09T12:02:27.529Z,64.21
2018-08-09T12:03:27.555Z,64.24
2018-08-09T12:04:27.900Z,64.19
2018-08-09T12:05:27.449Z,64.18
2018-08-09T12:06:27.581Z,64.16
2018-08-09T12:07:27.487Z,64.19
2018-08-09T12:08:27.344Z,64.19
2018-08-09T12:09:27.914Z,64.24
2018-08-09T12:10:27.390Z,64.21
2018-08-09T12:11:27.278Z,64.16
2018-08-09T12:12:27.317Z,64.18
2018-08-09T12:13:28.008Z,64.21
2018-08-09T12:14:29.766Z,64.18
2018-08-09T12:15:27.329Z,64.17
2018-08-09T12:16:27.576Z,64.17
2018-08-09T12:17:27.261Z,64.17
2018-08-09T12:18:27.734Z,64.16
2018-08-09T12:19:27.511Z,64.16
2018-08-09T12:20:27.482Z,64.14
2018-08-09T12:21:27.491Z,64.15
2018-08-09T12:22:27.513Z,64.18
2018-08-09T12:23:27.483Z,64.14
2018-08-09T12:24:28.025Z,64.14
2018-08-09T12:25:27.534Z,64.14
2018-08-09T12:26:27.604Z,64.09
2018-08-09T12:27:27.520Z,64.13
2018-08-09T12:28:27.366Z,64.13
2018-08-09T12:29:27.675Z,64.06
2018-08-09T12:30:27.858Z,64.1
2018-08-09T12:31:27.533Z,64.05
2018-08-09T12:32:27.489Z,64.04
2018-08-09T12:33:27.453Z,64.03
2018-08-09T12:34:27.424Z,64.02
2018-08-09T12:35:27.330Z,64.02
2018-08-09T12:36:27.920Z,64
2018-08-09T12:37:27.616Z,64.04
2018-08-09T12:38:27.424Z,64.01
2018-08-09T12:39:27.524Z,64.01
2018-08-09T12:40:27.383Z,64.03
2018-08-09T12:41:27.799Z,63.96
2018-08-09T12:42:27.294Z,64.01
2018-08-09T12:43:27.357Z,63.99
2018-08-09T12:44:27.528Z,63.97
2018-08-09T12:45:28.595Z,63.99
2018-08-09T12:46:27.391Z,64
2018-08-09T12:47:27.496Z,63.97
2018-08-09T12:48:27.453Z,63.99
2018-08-09T12:49:27.559Z,64.01
2018-08-09T12:50:27.364Z,63.97
2018-08-09T12:51:27.364Z,63.98
2018-08-09T12:52:27.484Z,64.07
2018-08-09T12:53:27.814Z,64.01
2018-08-09T12:54:27.445Z,64.04
2018-08-09T12:55:27.469Z,64.03